createdAt,value
2023-04-30T00:00:08.708Z,10.63
2023-04-30T00:02:39.384Z,11.95
2023-04-30T00:05:07.618Z,12.57
2023-04-30T00:07:35.231Z,11.60
2023-04-30T00:10:03.280Z,10.93
2023-04-30T00:12:32.605Z,10.63
2023-04-30T00:15:01.587Z,10.65
2023-04-30T00:17:34.516Z,11.10
2023-04-30T00:20:02.155Z,10.43
2023-04-30T00:22:33.389Z,10.60
2023-04-30T00:25:01.278Z,10.65
2023-04-30T00:27:30.359Z,9.60
2023-04-30T00:29:58.566Z,10.73
2023-04-30T00:32:26.248Z,10.43
2023-04-30T00:34:53.889Z,10.17
2023-04-30T00:37:21.453Z,10.30
2023-04-30T00:39:49.156Z,9.93
2023-04-30T00:42:16.994Z,11.07
2023-04-30T00:44:44.640Z,10.33
2023-04-30T00:47:12.304Z,10.20
2023-04-30T00:49:39.906Z,10.90
2023-04-30T00:52:07.379Z,11.90
2023-04-30T00:54:35.034Z,11.70
2023-04-30T00:57:03.129Z,11.50
2023-04-30T00:59:31.666Z,10.93
2023-04-30T01:01:59.410Z,10.47
2023-04-30T01:04:27.594Z,12.00
2023-04-30T01:06:56.799Z,11.03
2023-04-30T01:09:24.571Z,10.13
2023-04-30T01:12:02.077Z,10.73
2023-04-30T01:14:54.789Z,10.87
2023-04-30T01:17:39.578Z,11.80
2023-04-30T01:20:09.886Z,11.47
2023-04-30T01:22:50.899Z,12.50
2023-04-30T01:25:21.187Z,12.40
2023-04-30T01:28:03.768Z,12.63
2023-04-30T01:30:32.960Z,13.63
2023-04-30T01:33:01.002Z,13.10
2023-04-30T01:35:51.676Z,14.50
2023-04-30T01:38:37.929Z,14.27
2023-04-30T01:41:37.928Z,14.43
2023-04-30T01:45:03.200Z,14.57
2023-04-30T01:48:23.882Z,14.20
2023-04-30T01:50:56.944Z,14.13
2023-04-30T01:53:33.254Z,13.67
2023-04-30T01:56:08.470Z,14.23
2023-04-30T01:58:37.935Z,13.17
2023-04-30T02:01:05.679Z,13.10
2023-04-30T02:03:33.909Z,13.43
2023-04-30T02:06:01.847Z,13.67
2023-04-30T02:08:29.509Z,13.87
2023-04-30T02:10:57.140Z,13.47
2023-04-30T02:13:24.837Z,13.60
2023-04-30T02:15:52.614Z,13.50
2023-04-30T02:18:20.147Z,13.70
2023-04-30T02:20:47.802Z,13.17
2023-04-30T02:23:16.309Z,13.17
2023-04-30T02:25:43.925Z,12.40
2023-04-30T02:28:11.443Z,13.40
2023-04-30T02:30:39.383Z,12.90
2023-04-30T02:33:07.247Z,13.00
2023-04-30T02:35:34.917Z,13.40
2023-04-30T02:38:02.410Z,12.70
2023-04-30T02:40:29.999Z,13.33
2023-04-30T02:42:57.590Z,12.47
2023-04-30T02:45:25.189Z,13.27
2023-04-30T02:47:52.714Z,12.73
2023-04-30T02:50:20.379Z,13.40
2023-04-30T02:52:47.836Z,13.13
2023-04-30T02:55:15.592Z,12.07
2023-04-30T02:57:43.218Z,12.63
2023-04-30T03:00:11.453Z,13.03
2023-04-30T03:02:39.691Z,13.70
2023-04-30T03:05:07.569Z,13.07
2023-04-30T03:07:35.133Z,13.47
2023-04-30T03:10:02.994Z,11.23
2023-04-30T03:12:31.570Z,11.32
2023-04-30T03:14:59.030Z,11.23
2023-04-30T03:17:26.662Z,12.23
2023-04-30T03:19:54.415Z,12.45
2023-04-30T03:22:24.089Z,10.90
2023-04-30T03:24:51.774Z,10.18
2023-04-30T03:27:19.355Z,10.70
2023-04-30T03:29:47.176Z,10.15
2023-04-30T03:32:14.757Z,9.50
2023-04-30T03:34:42.388Z,10.02
2023-04-30T03:37:09.923Z,10.27
2023-04-30T03:39:37.479Z,9.30
2023-04-30T03:42:05.079Z,9.20
2023-04-30T03:44:32.689Z,9.25
2023-04-30T03:47:00.229Z,9.75
2023-04-30T03:49:27.891Z,10.98
2023-04-30T03:51:55.629Z,10.02
2023-04-30T03:54:23.203Z,10.57
2023-04-30T03:56:50.946Z,9.85
2023-04-30T03:59:19.441Z,11.20
2023-04-30T04:01:47.181Z,10.07
2023-04-30T04:04:14.970Z,9.88
2023-04-30T04:06:43.881Z,9.70
2023-04-30T04:09:11.626Z,9.57
2023-04-30T04:11:42.520Z,10.15
2023-04-30T04:14:10.091Z,9.90
2023-04-30T04:16:37.821Z,10.63
2023-04-30T04:19:06.768Z,9.88
2023-04-30T04:21:34.730Z,10.27
2023-04-30T04:24:08.883Z,9.82
2023-04-30T04:26:37.916Z,9.60
2023-04-30T04:29:05.797Z,10.70
2023-04-30T04:31:33.380Z,10.88
2023-04-30T04:34:04.607Z,10.70
2023-04-30T04:36:34.233Z,10.02
2023-04-30T04:39:02.565Z,10.35
2023-04-30T04:41:34.268Z,10.18
2023-04-30T04:44:04.400Z,10.13
2023-04-30T04:46:32.424Z,11.30
2023-04-30T04:49:00.260Z,9.55
2023-04-30T04:51:27.913Z,10.30
2023-04-30T04:53:55.634Z,10.30
2023-04-30T04:56:23.402Z,10.50
2023-04-30T04:58:50.997Z,11.02
2023-04-30T05:01:18.774Z,12.00
2023-04-30T05:03:48.922Z,12.00
2023-04-30T05:06:16.737Z,12.95
2023-04-30T05:08:44.238Z,12.65
2023-04-30T05:11:14.128Z,12.48
2023-04-30T05:13:42.993Z,12.43
2023-04-30T05:16:10.547Z,11.88
2023-04-30T05:18:38.288Z,11.93
2023-04-30T05:21:05.853Z,13.75
2023-04-30T05:23:33.475Z,11.18
2023-04-30T05:26:01.113Z,11.32
2023-04-30T05:28:28.609Z,9.63
2023-04-30T05:30:56.234Z,9.68
2023-04-30T05:33:23.815Z,8.77
2023-04-30T05:35:51.302Z,9.07
2023-04-30T05:38:18.962Z,7.93
2023-04-30T05:40:46.573Z,7.95
2023-04-30T05:43:14.175Z,8.00
2023-04-30T05:45:41.762Z,7.55
2023-04-30T05:48:09.404Z,7.32
2023-04-30T05:50:36.865Z,6.88
2023-04-30T05:53:04.462Z,5.85
2023-04-30T05:55:32.206Z,6.35
2023-04-30T05:57:59.781Z,5.50
2023-04-30T06:00:27.250Z,6.25
2023-04-30T06:02:54.916Z,5.38
2023-04-30T06:05:22.479Z,6.03
2023-04-30T06:07:50.098Z,5.28
2023-04-30T06:10:17.595Z,5.30
2023-04-30T06:12:45.169Z,5.10
2023-04-30T06:15:12.662Z,5.28
2023-04-30T06:17:40.425Z,4.43
2023-04-30T06:20:08.659Z,4.95
2023-04-30T06:22:36.874Z,4.40
2023-04-30T06:25:04.807Z,4.55
2023-04-30T06:27:33.639Z,4.05
2023-04-30T06:30:01.316Z,5.15
2023-04-30T06:32:33.173Z,4.22
2023-04-30T06:35:00.802Z,4.20
2023-04-30T06:37:28.375Z,3.97
2023-04-30T06:39:56.170Z,3.95
2023-04-30T06:42:24.245Z,3.58
2023-04-30T06:44:51.851Z,3.38
2023-04-30T06:47:19.335Z,3.13
2023-04-30T06:49:46.873Z,2.58
2023-04-30T06:52:14.316Z,2.90
2023-04-30T06:54:43.053Z,2.80
2023-04-30T06:57:10.713Z,2.70
2023-04-30T06:59:38.865Z,3.10
2023-04-30T07:02:06.552Z,2.90
2023-04-30T07:04:34.021Z,2.85
2023-04-30T07:07:05.235Z,3.03
2023-04-30T07:09:36.632Z,3.25
2023-04-30T07:12:04.395Z,3.03
2023-04-30T07:14:31.946Z,3.53
2023-04-30T07:16:59.610Z,3.35
2023-04-30T07:19:27.139Z,3.08
2023-04-30T07:21:54.836Z,2.25
2023-04-30T07:24:22.784Z,2.53
2023-04-30T07:26:50.482Z,2.05
2023-04-30T07:29:18.425Z,2.67
2023-04-30T07:31:46.144Z,2.30
2023-04-30T07:34:13.774Z,2.10
2023-04-30T07:36:41.536Z,2.00
2023-04-30T07:39:09.190Z,2.40
2023-04-30T07:41:36.739Z,2.20
2023-04-30T07:44:04.303Z,2.15
2023-04-30T07:46:32.253Z,1.90
2023-04-30T07:48:59.810Z,1.35
2023-04-30T07:51:27.541Z,1.70
2023-04-30T07:53:55.288Z,1.63
2023-04-30T07:56:23.049Z,1.40
2023-04-30T07:58:50.636Z,1.75
2023-04-30T08:01:18.344Z,2.03
2023-04-30T08:03:46.672Z,1.63
2023-04-30T08:06:14.612Z,1.70
2023-04-30T08:08:42.205Z,1.60
2023-04-30T08:11:09.903Z,1.50
2023-04-30T08:13:37.456Z,1.20
2023-04-30T08:16:05.558Z,1.80
2023-04-30T08:18:33.261Z,1.38
2023-04-30T08:21:01.582Z,1.50
2023-04-30T08:23:29.179Z,1.67
2023-04-30T08:25:56.746Z,2.40
2023-04-30T08:28:24.322Z,2.10
2023-04-30T08:30:51.842Z,1.40
2023-04-30T08:33:19.657Z,1.73
2023-04-30T08:35:47.176Z,1.58
2023-04-30T08:38:14.846Z,1.70
2023-04-30T08:40:51.473Z,1.88
2023-04-30T08:43:20.540Z,2.10
2023-04-30T08:45:50.505Z,1.70
2023-04-30T08:48:19.278Z,1.88
2023-04-30T08:50:46.917Z,2.67
2023-04-30T08:53:17.514Z,1.90
2023-04-30T08:55:45.494Z,1.80
2023-04-30T08:58:13.204Z,2.22
2023-04-30T09:00:41.918Z,1.80
2023-04-30T09:03:09.695Z,1.83
2023-04-30T09:05:38.509Z,2.22
2023-04-30T09:08:08.726Z,1.80
2023-04-30T09:10:36.423Z,1.52
2023-04-30T09:13:12.187Z,1.92
2023-04-30T09:15:46.029Z,1.90
2023-04-30T09:18:17.890Z,1.42
2023-04-30T09:21:03.728Z,1.65
2023-04-30T09:23:31.434Z,1.65
2023-04-30T09:25:59.014Z,1.85
2023-04-30T09:28:28.988Z,2.00
2023-04-30T09:30:57.962Z,2.35
2023-04-30T09:33:25.710Z,1.88
2023-04-30T09:35:53.498Z,1.90
2023-04-30T09:38:32.355Z,1.63
2023-04-30T09:41:01.980Z,2.65
2023-04-30T09:43:30.608Z,2.90
2023-04-30T09:45:59.864Z,1.70
2023-04-30T09:48:31.694Z,3.10
2023-04-30T09:51:03.875Z,2.40
2023-04-30T09:53:33.638Z,2.00
2023-04-30T09:56:07.039Z,1.42
2023-04-30T09:58:38.902Z,1.50
2023-04-30T10:01:08.584Z,2.25
2023-04-30T10:03:36.804Z,1.90
2023-04-30T10:06:04.585Z,1.88
2023-04-30T10:08:38.313Z,1.85
2023-04-30T10:11:08.460Z,2.03
2023-04-30T10:13:47.167Z,2.10
2023-04-30T10:16:30.268Z,2.00
2023-04-30T10:19:03.852Z,1.35
2023-04-30T10:21:32.693Z,1.60
2023-04-30T10:24:00.564Z,1.40
2023-04-30T10:26:29.451Z,1.95
2023-04-30T10:29:01.029Z,1.60
2023-04-30T10:31:30.815Z,1.77
2023-04-30T10:34:29.434Z,2.13
2023-04-30T10:37:01.300Z,1.70
2023-04-30T10:39:29.514Z,1.30
2023-04-30T10:42:05.300Z,1.45
2023-04-30T10:44:35.126Z,1.70
2023-04-30T10:47:04.680Z,1.75
2023-04-30T10:49:33.052Z,1.45
2023-04-30T10:52:27.827Z,1.20
2023-04-30T10:54:55.718Z,1.27
2023-04-30T10:57:23.236Z,1.55
2023-04-30T10:59:50.759Z,1.60
2023-04-30T11:02:18.378Z,2.65
2023-04-30T11:05:08.034Z,1.30
2023-04-30T11:07:36.259Z,1.60
2023-04-30T11:10:04.211Z,1.73
2023-04-30T11:12:31.928Z,1.52
2023-04-30T11:15:11.865Z,1.80
2023-04-30T11:17:40.021Z,1.60
2023-04-30T11:20:13.586Z,1.50
2023-04-30T11:22:41.465Z,1.73
2023-04-30T11:25:11.415Z,2.00
2023-04-30T11:27:43.046Z,1.50
2023-04-30T11:30:18.371Z,1.63
2023-04-30T11:32:48.334Z,1.90
2023-04-30T11:35:19.910Z,1.52
2023-04-30T11:37:48.484Z,1.60
2023-04-30T11:40:16.106Z,1.50
2023-04-30T11:42:46.171Z,1.40
2023-04-30T11:45:23.641Z,1.35
2023-04-30T11:47:54.831Z,1.33
2023-04-30T11:50:29.411Z,1.25
2023-04-30T11:52:59.386Z,1.40
2023-04-30T11:55:28.566Z,1.30
2023-04-30T11:57:58.763Z,1.60
2023-04-30T12:00:31.683Z,1.15
2023-04-30T12:03:03.877Z,1.40
2023-04-30T12:05:31.885Z,1.67
2023-04-30T12:08:13.066Z,1.85
2023-04-30T12:10:40.633Z,1.48
2023-04-30T12:13:08.286Z,1.50
2023-04-30T12:15:37.188Z,1.60
2023-04-30T12:18:13.722Z,1.60
2023-04-30T12:20:42.445Z,2.42
2023-04-30T12:23:10.508Z,2.63
2023-04-30T12:25:43.202Z,1.63
2023-04-30T12:28:12.058Z,1.48
2023-04-30T12:30:39.642Z,1.73
2023-04-30T12:33:11.066Z,1.35
2023-04-30T12:35:43.361Z,1.73
2023-04-30T12:38:11.585Z,2.10
2023-04-30T12:40:39.132Z,1.73
2023-04-30T12:43:08.566Z,1.60
2023-04-30T12:45:53.895Z,1.75
2023-04-30T12:48:24.556Z,1.80
2023-04-30T12:51:03.232Z,2.08
2023-04-30T12:53:32.268Z,1.83
2023-04-30T12:56:17.583Z,6.35
2023-04-30T12:58:48.680Z,2.20
2023-04-30T13:01:24.632Z,1.95
2023-04-30T13:03:53.874Z,1.65
2023-04-30T13:06:25.292Z,2.28
2023-04-30T13:11:24.361Z,2.28
2023-04-30T13:13:52.097Z,2.63
2023-04-30T13:16:19.968Z,2.47
2023-04-30T13:18:47.739Z,2.40
2023-04-30T13:21:15.706Z,2.17
2023-04-30T13:23:51.956Z,2.58
2023-04-30T13:26:22.248Z,2.08
2023-04-30T13:28:50.487Z,1.65
2023-04-30T13:31:18.541Z,2.30
2023-04-30T13:33:46.451Z,2.35
2023-04-30T13:36:14.410Z,2.08
2023-04-30T13:38:42.302Z,2.42
2023-04-30T13:41:09.781Z,2.50
2023-04-30T13:43:41.491Z,2.22
2023-04-30T13:46:10.162Z,8.63
2023-04-30T13:48:37.914Z,3.75
2023-04-30T13:51:05.703Z,4.13
2023-04-30T13:53:33.351Z,3.05
2023-04-30T13:56:01.054Z,2.47
2023-04-30T13:58:28.730Z,2.85
2023-04-30T14:00:56.733Z,2.20
2023-04-30T14:03:24.482Z,1.75
2023-04-30T14:05:52.588Z,2.20
2023-04-30T14:08:22.573Z,2.28
2023-04-30T14:10:51.472Z,2.22
2023-04-30T14:13:19.157Z,2.00
2023-04-30T14:15:47.904Z,2.78
2023-04-30T14:18:15.797Z,1.90
2023-04-30T14:20:43.529Z,1.85
2023-04-30T14:23:11.135Z,1.98
2023-04-30T14:25:38.941Z,2.30
2023-04-30T14:28:06.560Z,2.72
2023-04-30T14:30:34.078Z,2.45
2023-04-30T14:33:01.767Z,2.63
2023-04-30T14:35:29.465Z,3.15
2023-04-30T14:37:57.056Z,3.67
2023-04-30T14:40:24.592Z,3.75
2023-04-30T14:42:52.770Z,3.05
2023-04-30T14:45:20.817Z,2.60
2023-04-30T14:47:48.832Z,2.40
2023-04-30T14:50:16.684Z,2.20
2023-04-30T14:52:44.293Z,1.63
2023-04-30T14:55:11.934Z,2.63
2023-04-30T14:57:39.786Z,2.28
2023-04-30T15:00:08.143Z,2.10
2023-04-30T15:02:36.392Z,1.98
2023-04-30T15:05:08.738Z,2.00
2023-04-30T15:07:36.986Z,2.35
2023-04-30T15:10:05.833Z,3.85
2023-04-30T15:12:34.608Z,4.05
2023-04-30T15:15:05.967Z,4.10
2023-04-30T15:17:36.977Z,2.15
2023-04-30T15:20:06.531Z,2.85
2023-04-30T15:22:35.593Z,2.83
2023-04-30T15:25:04.012Z,3.20
2023-04-30T15:27:33.937Z,4.03
2023-04-30T15:30:01.911Z,2.30
2023-04-30T15:32:32.290Z,2.30
2023-04-30T15:34:59.926Z,3.08
2023-04-30T15:37:27.593Z,3.67
2023-04-30T15:39:55.406Z,3.88
2023-04-30T15:42:23.131Z,2.95
2023-04-30T15:44:50.663Z,3.08
2023-04-30T15:47:18.998Z,2.75
2023-04-30T15:49:48.434Z,2.25
2023-04-30T15:52:16.162Z,2.47
2023-04-30T15:54:43.749Z,2.35
2023-04-30T15:57:11.626Z,2.20
2023-04-30T15:59:39.156Z,2.40
2023-04-30T16:02:06.933Z,2.50
2023-04-30T16:04:34.498Z,2.75
2023-04-30T16:07:02.303Z,2.55
2023-04-30T16:09:30.000Z,2.90
2023-04-30T16:11:58.141Z,3.50
2023-04-30T16:14:25.656Z,2.80
2023-04-30T16:16:53.381Z,2.95
2023-04-30T16:19:20.906Z,3.22
2023-04-30T16:21:48.652Z,3.00
2023-04-30T16:24:16.462Z,3.38
2023-04-30T16:26:44.081Z,3.55
2023-04-30T16:29:11.684Z,3.80
2023-04-30T16:31:39.511Z,4.03
2023-04-30T16:34:11.354Z,3.67
2023-04-30T16:36:39.446Z,4.03
2023-04-30T16:39:06.983Z,3.55
2023-04-30T16:41:34.599Z,4.20
2023-04-30T16:44:02.684Z,4.05
2023-04-30T16:46:30.477Z,10.10
2023-04-30T16:48:58.325Z,4.20
2023-04-30T16:51:27.353Z,4.07
2023-04-30T16:53:55.035Z,3.85
2023-04-30T16:56:22.684Z,4.35
2023-04-30T16:58:50.298Z,3.53
2023-04-30T17:01:17.875Z,3.85
2023-04-30T17:03:46.419Z,4.32
2023-04-30T17:06:14.546Z,3.75
2023-04-30T17:08:42.223Z,4.60
2023-04-30T17:11:10.113Z,4.90
2023-04-30T17:13:37.820Z,3.42
2023-04-30T17:16:05.905Z,4.07
2023-04-30T17:18:33.513Z,5.85
2023-04-30T17:21:01.342Z,5.05
2023-04-30T17:23:28.923Z,3.83
2023-04-30T17:25:56.584Z,4.10
2023-04-30T17:28:24.407Z,3.70
2023-04-30T17:30:52.669Z,3.13
2023-04-30T17:33:20.319Z,3.35
2023-04-30T17:35:47.789Z,3.38
2023-04-30T17:38:15.842Z,3.10
2023-04-30T17:40:43.364Z,4.10
2023-04-30T17:43:11.516Z,3.40
2023-04-30T17:45:39.086Z,3.72
2023-04-30T17:48:07.661Z,2.90
2023-04-30T17:50:36.217Z,2.75
2023-04-30T17:53:03.999Z,2.72
2023-04-30T17:55:31.531Z,3.00
2023-04-30T17:57:59.622Z,3.10
2023-04-30T18:00:27.183Z,2.75
2023-04-30T18:02:54.923Z,2.67
2023-04-30T18:05:22.654Z,3.40
2023-04-30T18:07:50.240Z,3.10
2023-04-30T18:10:18.018Z,3.42
2023-04-30T18:12:45.866Z,3.28
2023-04-30T18:15:15.302Z,3.05
2023-04-30T18:17:42.997Z,3.17
2023-04-30T18:20:12.442Z,3.30
2023-04-30T18:22:43.559Z,3.47
2023-04-30T18:25:13.167Z,2.80
2023-04-30T18:27:41.192Z,2.92
2023-04-30T18:30:09.854Z,3.10
2023-04-30T18:32:37.885Z,2.85
2023-04-30T18:35:05.884Z,2.95
2023-04-30T18:37:33.973Z,3.08
2023-04-30T18:40:01.640Z,3.25
2023-04-30T18:42:33.519Z,2.92
2023-04-30T18:45:02.294Z,2.80
2023-04-30T18:47:33.787Z,3.10
2023-04-30T18:50:01.843Z,3.22
2023-04-30T18:52:30.581Z,3.28
2023-04-30T18:54:58.252Z,2.80
2023-04-30T18:57:25.743Z,2.97
2023-04-30T18:59:53.913Z,3.40
2023-04-30T19:02:24.415Z,3.72
2023-04-30T19:04:52.443Z,2.80
2023-04-30T19:07:20.057Z,2.90
2023-04-30T19:09:48.567Z,2.80
2023-04-30T19:12:16.164Z,2.70
2023-04-30T19:14:44.592Z,3.03
2023-04-30T19:17:13.033Z,2.42
2023-04-30T19:19:43.274Z,2.78
2023-04-30T19:22:11.749Z,2.60
2023-04-30T19:24:39.294Z,2.60
2023-04-30T19:27:06.873Z,2.55
2023-04-30T19:29:34.376Z,3.33
2023-04-30T19:32:04.603Z,2.80
2023-04-30T19:34:32.400Z,2.72
2023-04-30T19:37:00.642Z,2.63
2023-04-30T19:39:32.122Z,3.17
2023-04-30T19:41:59.839Z,2.65
2023-04-30T19:44:29.462Z,3.05
2023-04-30T19:46:57.822Z,2.85
2023-04-30T19:49:26.565Z,2.97
2023-04-30T19:51:54.941Z,3.10
2023-04-30T19:54:22.700Z,2.88
2023-04-30T19:56:53.025Z,2.75
2023-04-30T19:59:20.958Z,2.63
2023-04-30T20:01:48.785Z,3.45
2023-04-30T20:04:16.732Z,2.90
2023-04-30T20:06:45.067Z,2.72
2023-04-30T20:09:12.962Z,3.30
2023-04-30T20:11:40.549Z,3.05
2023-04-30T20:14:08.307Z,2.55
2023-04-30T20:16:36.072Z,2.67
2023-04-30T20:19:04.559Z,2.50
2023-04-30T20:21:32.358Z,2.60
2023-04-30T20:24:00.353Z,2.33
2023-04-30T20:26:29.358Z,3.05
2023-04-30T20:28:57.283Z,2.30
2023-04-30T20:31:24.988Z,2.10
2023-04-30T20:33:52.669Z,2.35
2023-04-30T20:36:20.423Z,2.50
2023-04-30T20:38:48.748Z,2.70
2023-04-30T20:41:16.346Z,2.75
2023-04-30T20:43:43.805Z,2.90
2023-04-30T20:46:13.933Z,2.20
2023-04-30T20:48:41.617Z,2.40
2023-04-30T20:51:10.470Z,2.15
2023-04-30T20:53:38.185Z,3.08
2023-04-30T20:56:05.887Z,2.42
2023-04-30T20:58:33.574Z,2.60
2023-04-30T21:01:01.237Z,2.40
2023-04-30T21:03:28.869Z,2.30
2023-04-30T21:05:56.452Z,2.87
2023-04-30T21:08:24.086Z,2.67
2023-04-30T21:10:51.742Z,2.35
2023-04-30T21:13:19.528Z,2.85
2023-04-30T21:15:48.806Z,2.70
2023-04-30T21:18:16.702Z,2.75
2023-04-30T21:20:44.402Z,2.75
2023-04-30T21:23:12.821Z,3.30
2023-04-30T21:25:40.779Z,3.10
2023-04-30T21:28:08.553Z,2.97
2023-04-30T21:30:37.135Z,3.08
2023-04-30T21:33:04.858Z,2.40
2023-04-30T21:35:33.273Z,2.60
2023-04-30T21:38:01.202Z,2.95
2023-04-30T21:40:32.428Z,3.13
2023-04-30T21:43:01.641Z,2.45
2023-04-30T21:45:31.682Z,2.67
2023-04-30T21:47:59.393Z,2.50
2023-04-30T21:50:28.304Z,2.58
2023-04-30T21:52:56.068Z,2.40
2023-04-30T21:55:23.670Z,2.60
2023-04-30T21:57:51.703Z,2.30
2023-04-30T22:00:19.553Z,2.50
2023-04-30T22:02:50.890Z,2.70
2023-04-30T22:05:19.841Z,2.17
2023-04-30T22:07:48.328Z,2.72
2023-04-30T22:10:16.148Z,2.78
2023-04-30T22:12:47.380Z,2.70
2023-04-30T22:15:15.971Z,2.85
2023-04-30T22:17:43.789Z,2.40
2023-04-30T22:20:11.741Z,2.13
2023-04-30T22:22:39.553Z,2.40
2023-04-30T22:25:09.185Z,2.90
2023-04-30T22:27:37.254Z,2.65
2023-04-30T22:30:06.179Z,2.70
2023-04-30T22:32:34.539Z,2.90
2023-04-30T22:35:03.180Z,2.75
2023-04-30T22:37:33.116Z,2.15
2023-04-30T22:40:00.717Z,2.35
2023-04-30T22:42:28.993Z,2.63
2023-04-30T22:44:57.545Z,2.85
2023-04-30T22:47:27.577Z,2.55
2023-04-30T22:49:56.521Z,2.90
2023-04-30T22:52:26.052Z,2.50
2023-04-30T22:54:53.827Z,2.28
2023-04-30T22:57:22.902Z,2.65
2023-04-30T22:59:50.690Z,2.63
2023-04-30T23:02:20.303Z,2.90
2023-04-30T23:04:48.461Z,2.90
2023-04-30T23:07:16.385Z,2.83
2023-04-30T23:09:45.259Z,3.05
2023-04-30T23:12:12.960Z,3.17
2023-04-30T23:14:40.452Z,2.75
2023-04-30T23:17:08.142Z,3.08
2023-04-30T23:19:38.576Z,2.80
2023-04-30T23:22:06.320Z,3.38
2023-04-30T23:24:35.973Z,3.53
2023-04-30T23:27:03.722Z,2.80
2023-04-30T23:29:31.635Z,3.20
2023-04-30T23:31:59.606Z,2.70
2023-04-30T23:34:27.432Z,2.67
2023-04-30T23:36:55.022Z,3.10
2023-04-30T23:39:24.471Z,3.30
2023-04-30T23:41:55.071Z,3.53
2023-04-30T23:44:22.619Z,3.53
2023-04-30T23:46:51.086Z,3.20
2023-04-30T23:49:19.109Z,3.75
2023-04-30T23:51:47.095Z,3.40
2023-04-30T23:54:15.064Z,3.65
2023-04-30T23:56:42.690Z,3.28
2023-04-30T23:59:10.236Z,3.30
